^^
LKKV - Karlovy Vary, Czech Republic
Entfernung von Station: O 36km
Aktualisierung: 17.06.2019 15:00
Klar
Klar
 Wind von NO
Wind: NO 15 km/h
Temperatur: 23°C
Taupunkt: 11°C
Luftfeuchte: 47%
Luftdruck: 1022 hPa
Zusammenfassung: Klar
Sicht: mehr als 10 km
2019/06/17 13:00 LKKV 171300Z 04008KT 020V090 CAVOK 23/11 Q1022
EDQM - Hof, Germany
Entfernung von Station: W 40km
Aktualisierung: 17.06.2019 14:50
stark bewölkt
stark bewölkt
 Wind von SO
Wind: SO 13 km/h
Temperatur: 22°C
Taupunkt: 12°C
Luftfeuchte: 53%
Luftdruck: 1022 hPa
Wolken: stark bewölkt
Sicht: 10 km
Wolken Details: wolkig 1494 m
stark bewölkt 2073 m
2019/06/17 12:50 EDQM 171250Z 14007KT 100V170 9999 SCT049 BKN068 22/12 Q1022
 
ETIC - Grafenwoehr, Germany
Entfernung von Station: SSW 72km
Aktualisierung: 17.06.2019 14:56
stark bewölkt
stark bewölkt
 Wind von calm
Wind: Windstill
Temperatur: 24°C
Taupunkt: 12°C
Luftfeuchte: 47%
Luftdruck: 1020 hPa
Wolken: stark bewölkt
Sicht: 10 km
Wolken Details: wolkig 1829 m
stark bewölkt 2438 m
2019/06/17 12:56 ETIC 171256Z AUTO 00000KT 9999 SCT060 BKN080 24/12 A3012 RMK AO2 SLP190 T02400117 $
EDAC - Altenburg-Nobitz, Germany
Entfernung von Station: N 80km
Aktualisierung: 17.06.2019 14:50
Klar
Klar
 Wind von veränderlich
Wind: veränderlich 7 km/h
Temperatur: 25°C
Taupunkt: 11°C
Luftfeuchte: 42%
Luftdruck: 1021 hPa
Zusammenfassung: Klar
Sicht: mehr als 10 km
2019/06/17 12:50 EDAC 171250Z VRB04KT CAVOK 25/11 Q1021
 
LKLN - Plzen Line, Czech Republic
Entfernung von Station: SO 88km
Aktualisierung: 17.06.2019 14:00
Bedeckt
Bedeckt
 Wind von O
Wind: O 11 km/h
Temperatur: 23°C
Taupunkt: 12°C
Luftfeuchte: 50%
Luftdruck: 1021 hPa
Wolken: Bedeckt
Sicht: 10 km
Wolken Details: Bedeckt 1737 m
2019/06/17 12:00 LKLN 171200Z AUTO 09006KT 070V130 9999 OVC057 23/12 Q1021
ETIH - Hohenfels (usa-A, Germany
Entfernung von Station: SSW 124km
Aktualisierung: 17.06.2019 14:56
wolkig
wolkig
 Wind von NO
Wind: NO 9 km/h
Temperatur: 25°C
Taupunkt: 16°C
Luftfeuchte: 57%
Luftdruck: 1020.3 hPa
Wolken: wolkig
Sicht: 10 km
Wolken Details: wolkig 1494 m
2019/06/17 12:56 ETIH 171256Z AUTO 05005KT 9999 SCT049 25/16 A3013 RMK AO2 SLP194 T02470161 $
 
EDDE - Erfurt/Bindersleben, Germany
Entfernung von Station: NW 129km
Aktualisierung: 17.06.2019 14:50
Klar
Klar
 Wind von NO
Wind: NO 13 km/h
Temperatur: 25°C
Taupunkt: 12°C
Luftfeuchte: 44%
Luftdruck: 1021 hPa
Zusammenfassung: Klar
Sicht: mehr als 10 km
2019/06/17 12:50 EDDE 171250Z 05007KT 020V090 CAVOK 25/12 Q1021 NOSIG
EDDP - Leipzig/Schkeudidtz, Germany
Entfernung von Station: N 129km
Aktualisierung: 17.06.2019 14:50
Klar
Klar
 Wind von O
Wind: O 9 km/h
Temperatur: 26°C
Taupunkt: 12°C
Luftfeuchte: 42%
Luftdruck: 1021 hPa
Zusammenfassung: Klar
Sicht: mehr als 10 km
2019/06/17 12:50 EDDP 171250Z 09005KT 040V200 CAVOK 26/12 Q1021 NOSIG
 
EDDN - Nuernberg, Germany
Entfernung von Station: SW 130km
Aktualisierung: 17.06.2019 14:50
Klar
Klar
 Wind von veränderlich
Wind: veränderlich 9 km/h
Temperatur: 26°C
Taupunkt: 13°C
Luftfeuchte: 45%
Luftdruck: 1019 hPa
Zusammenfassung: Klar
Sicht: mehr als 10 km
2019/06/17 12:50 EDDN 171250Z VRB05KT CAVOK 26/13 Q1019 NOSIG
LKPR - Prague/Ruzyne, Czech Republic
Entfernung von Station: O 133km
Aktualisierung: 17.06.2019 15:00
Klar
Klar
 Wind von OSO
Wind: OSO 11 km/h
Temperatur: 24°C
Taupunkt: 10°C
Luftfeuchte: 41%
Luftdruck: 1021 hPa
Zusammenfassung: Klar
Sicht: mehr als 10 km
2019/06/17 13:00 LKPR 171300Z 12006KT 080V190 CAVOK 24/10 Q1021 NOSIG
 
EDDC - Dresden/Klotzsche, Germany
Entfernung von Station: NO 134km
Aktualisierung: 17.06.2019 14:50
Klar
Klar
 Wind von NO
Wind: NO 13 km/h
Temperatur: 25°C
Taupunkt: 9°C
Luftfeuchte: 36%
Luftdruck: 1021 hPa
Zusammenfassung: Klar
Sicht: mehr als 10 km
2019/06/17 12:50 EDDC 171250Z 05007KT 010V090 CAVOK 25/09 Q1021 NOSIG
Besucherstatistik
Besucher gesamt: 2.148.517
Besucher heute: 1.157
Besucher gestern: 1.895
gerade online: 34
Seitenaufrufe diese Seite: 4.453
counter Statistiken